sensor_id;sensor_type;location;lat;lon;timestamp;temperature;humidity
13458;DHT22;6801;53.018;11.560;2022-10-31T00:02:17;13.40;75.00
13458;DHT22;6801;53.018;11.560;2022-10-31T00:04:44;13.30;75.00
13458;DHT22;6801;53.018;11.560;2022-10-31T00:07:11;13.30;75.00
13458;DHT22;6801;53.018;11.560;2022-10-31T00:09:38;13.30;75.00
13458;DHT22;6801;53.018;11.560;2022-10-31T00:12:05;13.30;74.90
13458;DHT22;6801;53.018;11.560;2022-10-31T00:14:32;13.30;74.90
13458;DHT22;6801;53.018;11.560;2022-10-31T00:17:01;13.20;75.00
13458;DHT22;6801;53.018;11.560;2022-10-31T00:19:28;13.20;75.00
13458;DHT22;6801;53.018;11.560;2022-10-31T00:21:55;13.20;75.00
13458;DHT22;6801;53.018;11.560;2022-10-31T00:24:23;13.20;75.10
13458;DHT22;6801;53.018;11.560;2022-10-31T00:26:50;13.10;75.10
13458;DHT22;6801;53.018;11.560;2022-10-31T00:29:17;13.10;75.20
13458;DHT22;6801;53.018;11.560;2022-10-31T00:31:44;13.10;75.30
13458;DHT22;6801;53.018;11.560;2022-10-31T00:34:13;13.10;75.20
13458;DHT22;6801;53.018;11.560;2022-10-31T00:36:42;13.00;75.20
13458;DHT22;6801;53.018;11.560;2022-10-31T00:39:13;13.00;75.10
13458;DHT22;6801;53.018;11.560;2022-10-31T00:41:40;13.00;75.10
13458;DHT22;6801;53.018;11.560;2022-10-31T00:44:11;13.00;75.10
13458;DHT22;6801;53.018;11.560;2022-10-31T00:46:39;12.90;75.10
13458;DHT22;6801;53.018;11.560;2022-10-31T00:49:06;12.90;75.10
13458;DHT22;6801;53.018;11.560;2022-10-31T00:51:34;12.90;75.40
13458;DHT22;6801;53.018;11.560;2022-10-31T00:54:01;12.80;75.50
13458;DHT22;6801;53.018;11.560;2022-10-31T00:56:29;12.90;75.50
13458;DHT22;6801;53.018;11.560;2022-10-31T00:58:57;12.80;75.50
13458;DHT22;6801;53.018;11.560;2022-10-31T01:01:24;12.80;75.50
13458;DHT22;6801;53.018;11.560;2022-10-31T01:03:51;12.80;75.50
13458;DHT22;6801;53.018;11.560;2022-10-31T01:06:19;12.80;75.50
13458;DHT22;6801;53.018;11.560;2022-10-31T01:08:48;12.80;75.50
13458;DHT22;6801;53.018;11.560;2022-10-31T01:11:16;12.80;75.40
13458;DHT22;6801;53.018;11.560;2022-10-31T01:13:45;12.80;75.50
13458;DHT22;6801;53.018;11.560;2022-10-31T01:16:14;12.70;75.40
13458;DHT22;6801;53.018;11.560;2022-10-31T01:18:42;12.70;75.40
13458;DHT22;6801;53.018;11.560;2022-10-31T01:21:11;12.70;75.30
13458;DHT22;6801;53.018;11.560;2022-10-31T01:23:38;12.70;75.10
13458;DHT22;6801;53.018;11.560;2022-10-31T01:26:12;12.60;75.30
13458;DHT22;6801;53.018;11.560;2022-10-31T01:28:45;12.60;75.40
13458;DHT22;6801;53.018;11.560;2022-10-31T01:31:14;12.60;75.50
13458;DHT22;6801;53.018;11.560;2022-10-31T01:33:41;12.50;75.50
13458;DHT22;6801;53.018;11.560;2022-10-31T01:36:14;12.50;75.60
13458;DHT22;6801;53.018;11.560;2022-10-31T01:38:42;12.50;75.70
13458;DHT22;6801;53.018;11.560;2022-10-31T01:41:13;12.50;75.70
13458;DHT22;6801;53.018;11.560;2022-10-31T01:43:45;12.50;75.70
13458;DHT22;6801;53.018;11.560;2022-10-31T01:46:12;12.50;75.70
13458;DHT22;6801;53.018;11.560;2022-10-31T01:48:40;12.40;75.70
13458;DHT22;6801;53.018;11.560;2022-10-31T01:51:10;12.40;75.70
13458;DHT22;6801;53.018;11.560;2022-10-31T01:53:39;12.40;75.80
13458;DHT22;6801;53.018;11.560;2022-10-31T01:56:07;12.40;75.80
13458;DHT22;6801;53.018;11.560;2022-10-31T01:58:39;12.40;75.70
13458;DHT22;6801;53.018;11.560;2022-10-31T02:01:07;12.40;75.70
13458;DHT22;6801;53.018;11.560;2022-10-31T02:03:35;12.30;75.80
13458;DHT22;6801;53.018;11.560;2022-10-31T02:06:03;12.30;75.80
13458;DHT22;6801;53.018;11.560;2022-10-31T02:08:33;12.30;75.80
13458;DHT22;6801;53.018;11.560;2022-10-31T02:11:01;12.30;75.80
13458;DHT22;6801;53.018;11.560;2022-10-31T02:13:29;12.30;75.80
13458;DHT22;6801;53.018;11.560;2022-10-31T02:15:59;12.20;75.80
13458;DHT22;6801;53.018;11.560;2022-10-31T02:18:28;12.20;75.90
13458;DHT22;6801;53.018;11.560;2022-10-31T02:21:05;12.20;75.90
13458;DHT22;6801;53.018;11.560;2022-10-31T02:26:51;12.20;75.80
13458;DHT22;6801;53.018;11.560;2022-10-31T02:29:53;12.10;75.90
13458;DHT22;6801;53.018;11.560;2022-10-31T02:32:27;12.10;75.90
13458;DHT22;6801;53.018;11.560;2022-10-31T02:35:01;12.10;75.90
13458;DHT22;6801;53.018;11.560;2022-10-31T02:37:37;12.10;75.90
13458;DHT22;6801;53.018;11.560;2022-10-31T02:40:12;12.10;76.00
13458;DHT22;6801;53.018;11.560;2022-10-31T02:43:05;12.10;76.00
13458;DHT22;6801;53.018;11.560;2022-10-31T02:45:41;12.00;76.00
13458;DHT22;6801;53.018;11.560;2022-10-31T02:48:14;12.00;76.10
13458;DHT22;6801;53.018;11.560;2022-10-31T02:50:49;12.00;76.10
13458;DHT22;6801;53.018;11.560;2022-10-31T02:53:19;12.00;76.10
13458;DHT22;6801;53.018;11.560;2022-10-31T02:55:54;12.00;76.20
13458;DHT22;6801;53.018;11.560;2022-10-31T02:58:26;12.00;76.20
13458;DHT22;6801;53.018;11.560;2022-10-31T03:04:01;11.90;76.20
13458;DHT22;6801;53.018;11.560;2022-10-31T03:06:33;11.90;76.30
13458;DHT22;6801;53.018;11.560;2022-10-31T03:09:07;11.90;76.40
13458;DHT22;6801;53.018;11.560;2022-10-31T03:11:42;11.90;76.40
13458;DHT22;6801;53.018;11.560;2022-10-31T03:14:13;11.90;76.40
13458;DHT22;6801;53.018;11.560;2022-10-31T03:16:47;11.90;76.50
13458;DHT22;6801;53.018;11.560;2022-10-31T03:19:18;11.90;76.50
13458;DHT22;6801;53.018;11.560;2022-10-31T03:21:53;11.80;76.60
13458;DHT22;6801;53.018;11.560;2022-10-31T03:24:26;11.90;76.60
13458;DHT22;6801;53.018;11.560;2022-10-31T03:26:57;11.80;76.70
13458;DHT22;6801;53.018;11.560;2022-10-31T03:29:27;11.80;76.70
13458;DHT22;6801;53.018;11.560;2022-10-31T03:31:58;11.80;76.70
13458;DHT22;6801;53.018;11.560;2022-10-31T03:34:28;11.80;76.80
13458;DHT22;6801;53.018;11.560;2022-10-31T03:37:01;11.80;76.90
13458;DHT22;6801;53.018;11.560;2022-10-31T03:39:28;11.80;76.80
13458;DHT22;6801;53.018;11.560;2022-10-31T03:42:02;11.80;76.90
13458;DHT22;6801;53.018;11.560;2022-10-31T03:44:32;11.80;77.00
13458;DHT22;6801;53.018;11.560;2022-10-31T03:47:01;11.90;77.20
13458;DHT22;6801;53.018;11.560;2022-10-31T03:49:31;11.80;77.20
13458;DHT22;6801;53.018;11.560;2022-10-31T03:52:04;11.90;77.00
13458;DHT22;6801;53.018;11.560;2022-10-31T03:54:36;11.80;77.00
13458;DHT22;6801;53.018;11.560;2022-10-31T03:57:07;11.80;77.10
13458;DHT22;6801;53.018;11.560;2022-10-31T03:59:38;11.90;77.30
13458;DHT22;6801;53.018;11.560;2022-10-31T04:02:10;11.80;77.40
13458;DHT22;6801;53.018;11.560;2022-10-31T04:04:40;11.90;77.40
13458;DHT22;6801;53.018;11.560;2022-10-31T04:07:08;11.90;77.50
13458;DHT22;6801;53.018;11.560;2022-10-31T04:09:38;11.90;77.50
13458;DHT22;6801;53.018;11.560;2022-10-31T04:12:08;11.90;77.40
13458;DHT22;6801;53.018;11.560;2022-10-31T04:15:07;11.90;77.50
13458;DHT22;6801;53.018;11.560;2022-10-31T04:17:39;11.90;77.50
13458;DHT22;6801;53.018;11.560;2022-10-31T04:20:09;11.90;77.50
13458;DHT22;6801;53.018;11.560;2022-10-31T04:22:36;11.90;77.60
13458;DHT22;6801;53.018;11.560;2022-10-31T04:25:04;11.90;77.60
13458;DHT22;6801;53.018;11.560;2022-10-31T04:27:31;11.90;77.60
13458;DHT22;6801;53.018;11.560;2022-10-31T04:29:58;12.00;77.60
13458;DHT22;6801;53.018;11.560;2022-10-31T04:32:27;11.90;77.60
13458;DHT22;6801;53.018;11.560;2022-10-31T04:34:55;12.00;77.70
13458;DHT22;6801;53.018;11.560;2022-10-31T04:37:23;12.00;77.70
13458;DHT22;6801;53.018;11.560;2022-10-31T04:39:50;12.00;77.70
13458;DHT22;6801;53.018;11.560;2022-10-31T04:42:36;12.00;77.80
13458;DHT22;6801;53.018;11.560;2022-10-31T04:45:05;12.00;77.70
13458;DHT22;6801;53.018;11.560;2022-10-31T04:47:35;12.00;77.70
13458;DHT22;6801;53.018;11.560;2022-10-31T04:50:03;12.00;77.80
13458;DHT22;6801;53.018;11.560;2022-10-31T04:52:38;12.00;77.80
13458;DHT22;6801;53.018;11.560;2022-10-31T04:55:06;12.00;77.80
13458;DHT22;6801;53.018;11.560;2022-10-31T04:57:52;12.00;77.80
13458;DHT22;6801;53.018;11.560;2022-10-31T05:00:21;12.00;77.80
13458;DHT22;6801;53.018;11.560;2022-10-31T05:02:51;12.00;77.90
13458;DHT22;6801;53.018;11.560;2022-10-31T05:05:20;12.00;78.00
13458;DHT22;6801;53.018;11.560;2022-10-31T05:07:50;12.00;78.00
13458;DHT22;6801;53.018;11.560;2022-10-31T05:10:21;12.00;78.00
13458;DHT22;6801;53.018;11.560;2022-10-31T05:12:51;12.00;78.00
13458;DHT22;6801;53.018;11.560;2022-10-31T05:15:30;12.00;78.10
13458;DHT22;6801;53.018;11.560;2022-10-31T05:18:16;12.00;78.00
13458;DHT22;6801;53.018;11.560;2022-10-31T05:21:09;12.10;77.70
13458;DHT22;6801;53.018;11.560;2022-10-31T05:23:48;12.00;77.80
13458;DHT22;6801;53.018;11.560;2022-10-31T05:26:16;12.00;78.00
13458;DHT22;6801;53.018;11.560;2022-10-31T05:28:44;12.00;78.20
13458;DHT22;6801;53.018;11.560;2022-10-31T05:31:11;12.00;78.20
13458;DHT22;6801;53.018;11.560;2022-10-31T05:33:38;12.00;78.30
13458;DHT22;6801;53.018;11.560;2022-10-31T05:36:24;12.00;78.40
13458;DHT22;6801;53.018;11.560;2022-10-31T05:38:59;12.00;78.50
13458;DHT22;6801;53.018;11.560;2022-10-31T05:41:34;12.00;78.80
13458;DHT22;6801;53.018;11.560;2022-10-31T05:44:08;12.00;78.80
13458;DHT22;6801;53.018;11.560;2022-10-31T05:46:51;12.10;78.80
13458;DHT22;6801;53.018;11.560;2022-10-31T05:49:30;12.10;78.80
13458;DHT22;6801;53.018;11.560;2022-10-31T05:52:17;12.10;78.90
13458;DHT22;6801;53.018;11.560;2022-10-31T05:54:53;12.00;78.80
13458;DHT22;6801;53.018;11.560;2022-10-31T05:57:20;12.10;79.10
13458;DHT22;6801;53.018;11.560;2022-10-31T05:59:47;12.10;79.20
13458;DHT22;6801;53.018;11.560;2022-10-31T06:02:14;12.20;79.70
13458;DHT22;6801;53.018;11.560;2022-10-31T06:05:00;12.10;79.70
13458;DHT22;6801;53.018;11.560;2022-10-31T06:07:32;12.20;79.60
13458;DHT22;6801;53.018;11.560;2022-10-31T06:10:02;12.20;79.60
13458;DHT22;6801;53.018;11.560;2022-10-31T06:12:30;12.20;79.50
13458;DHT22;6801;53.018;11.560;2022-10-31T06:15:20;12.20;79.50
13458;DHT22;6801;53.018;11.560;2022-10-31T06:17:57;12.20;79.40
13458;DHT22;6801;53.018;11.560;2022-10-31T06:20:26;12.20;79.30
13458;DHT22;6801;53.018;11.560;2022-10-31T06:23:01;12.20;79.30
13458;DHT22;6801;53.018;11.560;2022-10-31T06:25:32;12.30;79.40
13458;DHT22;6801;53.018;11.560;2022-10-31T06:28:00;12.30;79.40
13458;DHT22;6801;53.018;11.560;2022-10-31T06:30:36;12.30;79.60
13458;DHT22;6801;53.018;11.560;2022-10-31T06:33:04;12.30;79.80
13458;DHT22;6801;53.018;11.560;2022-10-31T06:35:35;12.30;80.10
13458;DHT22;6801;53.018;11.560;2022-10-31T06:38:02;12.40;80.10
13458;DHT22;6801;53.018;11.560;2022-10-31T06:40:38;12.40;80.20
13458;DHT22;6801;53.018;11.560;2022-10-31T06:43:15;12.40;80.30
13458;DHT22;6801;53.018;11.560;2022-10-31T06:45:43;12.40;80.20
13458;DHT22;6801;53.018;11.560;2022-10-31T06:48:21;12.40;80.30
13458;DHT22;6801;53.018;11.560;2022-10-31T06:51:12;12.40;80.10
13458;DHT22;6801;53.018;11.560;2022-10-31T06:53:39;12.40;80.00
13458;DHT22;6801;53.018;11.560;2022-10-31T06:56:09;12.50;80.10
13458;DHT22;6801;53.018;11.560;2022-10-31T06:58:42;12.50;80.10
13458;DHT22;6801;53.018;11.560;2022-10-31T07:01:11;12.50;80.10
13458;DHT22;6801;53.018;11.560;2022-10-31T07:03:38;12.50;80.10
13458;DHT22;6801;53.018;11.560;2022-10-31T07:06:07;12.50;80.20
13458;DHT22;6801;53.018;11.560;2022-10-31T07:08:34;12.50;80.30
13458;DHT22;6801;53.018;11.560;2022-10-31T07:11:01;12.60;80.30
13458;DHT22;6801;53.018;11.560;2022-10-31T07:13:31;12.60;80.20
13458;DHT22;6801;53.018;11.560;2022-10-31T07:16:05;12.60;80.30
13458;DHT22;6801;53.018;11.560;2022-10-31T07:18:35;12.60;80.20
13458;DHT22;6801;53.018;11.560;2022-10-31T07:21:02;12.60;80.10
13458;DHT22;6801;53.018;11.560;2022-10-31T07:23:29;12.60;80.20
13458;DHT22;6801;53.018;11.560;2022-10-31T07:26:28;12.60;80.30
13458;DHT22;6801;53.018;11.560;2022-10-31T07:28:57;12.60;80.20
13458;DHT22;6801;53.018;11.560;2022-10-31T07:31:27;12.70;80.30
13458;DHT22;6801;53.018;11.560;2022-10-31T07:33:58;12.70;80.30
13458;DHT22;6801;53.018;11.560;2022-10-31T07:36:28;12.80;80.30
13458;DHT22;6801;53.018;11.560;2022-10-31T07:39:00;12.80;80.30
13458;DHT22;6801;53.018;11.560;2022-10-31T07:41:29;12.80;80.30
13458;DHT22;6801;53.018;11.560;2022-10-31T07:43:58;12.80;80.30
13458;DHT22;6801;53.018;11.560;2022-10-31T07:46:44;12.80;80.30
13458;DHT22;6801;53.018;11.560;2022-10-31T07:49:31;12.90;80.30
13458;DHT22;6801;53.018;11.560;2022-10-31T07:52:18;12.90;80.30
13458;DHT22;6801;53.018;11.560;2022-10-31T07:55:04;12.90;80.20
13458;DHT22;6801;53.018;11.560;2022-10-31T07:57:34;13.00;80.30
13458;DHT22;6801;53.018;11.560;2022-10-31T08:00:04;13.00;80.50
13458;DHT22;6801;53.018;11.560;2022-10-31T08:02:40;13.00;80.60
13458;DHT22;6801;53.018;11.560;2022-10-31T08:05:26;13.00;80.60
13458;DHT22;6801;53.018;11.560;2022-10-31T08:08:13;13.00;80.60
13458;DHT22;6801;53.018;11.560;2022-10-31T08:10:41;13.00;80.50
13458;DHT22;6801;53.018;11.560;2022-10-31T08:13:10;13.10;80.60
13458;DHT22;6801;53.018;11.560;2022-10-31T08:15:42;13.10;80.90
13458;DHT22;6801;53.018;11.560;2022-10-31T08:18:12;13.10;80.80
13458;DHT22;6801;53.018;11.560;2022-10-31T08:20:40;13.10;80.70
13458;DHT22;6801;53.018;11.560;2022-10-31T08:23:09;13.20;80.90
13458;DHT22;6801;53.018;11.560;2022-10-31T08:25:37;13.20;81.00
13458;DHT22;6801;53.018;11.560;2022-10-31T08:28:05;13.20;81.00
13458;DHT22;6801;53.018;11.560;2022-10-31T08:30:34;13.20;81.10
13458;DHT22;6801;53.018;11.560;2022-10-31T08:33:21;13.30;81.10
13458;DHT22;6801;53.018;11.560;2022-10-31T08:36:15;13.30;81.10
13458;DHT22;6801;53.018;11.560;2022-10-31T08:38:56;13.30;81.40
13458;DHT22;6801;53.018;11.560;2022-10-31T08:41:24;13.30;81.20
13458;DHT22;6801;53.018;11.560;2022-10-31T08:43:52;13.40;81.30
13458;DHT22;6801;53.018;11.560;2022-10-31T08:46:20;13.40;81.40
13458;DHT22;6801;53.018;11.560;2022-10-31T08:48:49;13.40;81.40
13458;DHT22;6801;53.018;11.560;2022-10-31T08:51:18;13.40;81.50
13458;DHT22;6801;53.018;11.560;2022-10-31T08:53:52;13.50;81.40
13458;DHT22;6801;53.018;11.560;2022-10-31T08:56:34;13.50;81.50
13458;DHT22;6801;53.018;11.560;2022-10-31T08:59:06;13.50;81.30
13458;DHT22;6801;53.018;11.560;2022-10-31T09:01:53;13.50;81.30
13458;DHT22;6801;53.018;11.560;2022-10-31T09:04:21;13.60;81.30
13458;DHT22;6801;53.018;11.560;2022-10-31T09:06:49;13.60;81.40
13458;DHT22;6801;53.018;11.560;2022-10-31T09:09:16;13.60;81.50
13458;DHT22;6801;53.018;11.560;2022-10-31T09:11:43;13.60;81.40
13458;DHT22;6801;53.018;11.560;2022-10-31T09:14:10;13.60;81.30
13458;DHT22;6801;53.018;11.560;2022-10-31T09:17:06;13.70;81.40
13458;DHT22;6801;53.018;11.560;2022-10-31T09:19:52;13.70;81.20
13458;DHT22;6801;53.018;11.560;2022-10-31T09:22:26;13.70;81.20
13458;DHT22;6801;53.018;11.560;2022-10-31T09:24:53;13.70;81.40
13458;DHT22;6801;53.018;11.560;2022-10-31T09:27:20;13.80;81.40
13458;DHT22;6801;53.018;11.560;2022-10-31T09:29:47;13.80;81.50
13458;DHT22;6801;53.018;11.560;2022-10-31T09:32:16;13.80;81.50
13458;DHT22;6801;53.018;11.560;2022-10-31T09:34:45;13.80;81.40
13458;DHT22;6801;53.018;11.560;2022-10-31T09:37:17;13.90;81.30
13458;DHT22;6801;53.018;11.560;2022-10-31T09:39:44;13.90;81.40
13458;DHT22;6801;53.018;11.560;2022-10-31T09:42:40;13.90;81.40
13458;DHT22;6801;53.018;11.560;2022-10-31T09:45:21;13.90;81.30
13458;DHT22;6801;53.018;11.560;2022-10-31T09:51:05;14.00;81.60
13458;DHT22;6801;53.018;11.560;2022-10-31T09:53:41;14.00;81.70
13458;DHT22;6801;53.018;11.560;2022-10-31T09:56:12;14.00;81.60
13458;DHT22;6801;53.018;11.560;2022-10-31T09:58:41;14.00;81.50
13458;DHT22;6801;53.018;11.560;2022-10-31T10:01:20;14.00;81.40
13458;DHT22;6801;53.018;11.560;2022-10-31T10:03:50;14.00;81.10
13458;DHT22;6801;53.018;11.560;2022-10-31T10:06:46;14.00;81.10
13458;DHT22;6801;53.018;11.560;2022-10-31T10:09:48;14.00;81.20
13458;DHT22;6801;53.018;11.560;2022-10-31T10:12:37;14.10;81.10
13458;DHT22;6801;53.018;11.560;2022-10-31T10:15:25;14.10;81.30
13458;DHT22;6801;53.018;11.560;2022-10-31T10:18:02;14.10;81.30
13458;DHT22;6801;53.018;11.560;2022-10-31T10:20:35;14.10;81.30
13458;DHT22;6801;53.018;11.560;2022-10-31T10:23:23;14.10;81.30
13458;DHT22;6801;53.018;11.560;2022-10-31T10:26:03;14.10;81.30
13458;DHT22;6801;53.018;11.560;2022-10-31T10:28:36;14.10;81.30
13458;DHT22;6801;53.018;11.560;2022-10-31T10:31:08;14.10;81.20
13458;DHT22;6801;53.018;11.560;2022-10-31T10:33:39;14.20;81.20
13458;DHT22;6801;53.018;11.560;2022-10-31T10:36:11;14.20;81.20
13458;DHT22;6801;53.018;11.560;2022-10-31T10:38:50;14.20;81.20
13458;DHT22;6801;53.018;11.560;2022-10-31T10:41:21;14.20;81.20
13458;DHT22;6801;53.018;11.560;2022-10-31T10:43:49;14.20;81.10
13458;DHT22;6801;53.018;11.560;2022-10-31T10:46:18;14.30;81.10
13458;DHT22;6801;53.018;11.560;2022-10-31T10:49:13;14.30;80.80
13458;DHT22;6801;53.018;11.560;2022-10-31T10:51:45;14.20;80.80
13458;DHT22;6801;53.018;11.560;2022-10-31T10:54:26;14.30;80.90
13458;DHT22;6801;53.018;11.560;2022-10-31T10:57:04;14.30;81.00
13458;DHT22;6801;53.018;11.560;2022-10-31T10:59:34;14.30;81.00
13458;DHT22;6801;53.018;11.560;2022-10-31T11:02:08;14.30;81.00
13458;DHT22;6801;53.018;11.560;2022-10-31T11:04:42;14.30;81.00
13458;DHT22;6801;53.018;11.560;2022-10-31T11:07:12;14.40;80.90
13458;DHT22;6801;53.018;11.560;2022-10-31T11:09:39;14.40;80.90
13458;DHT22;6801;53.018;11.560;2022-10-31T11:12:10;14.40;80.90
13458;DHT22;6801;53.018;11.560;2022-10-31T11:14:44;14.40;80.90
13458;DHT22;6801;53.018;11.560;2022-10-31T11:17:20;14.40;80.90
13458;DHT22;6801;53.018;11.560;2022-10-31T11:20:00;14.50;80.80
13458;DHT22;6801;53.018;11.560;2022-10-31T11:22:27;14.50;80.70
13458;DHT22;6801;53.018;11.560;2022-10-31T11:24:54;14.50;80.60
13458;DHT22;6801;53.018;11.560;2022-10-31T11:27:24;14.50;80.60
13458;DHT22;6801;53.018;11.560;2022-10-31T11:29:51;14.50;80.70
13458;DHT22;6801;53.018;11.560;2022-10-31T11:32:21;14.50;80.60
13458;DHT22;6801;53.018;11.560;2022-10-31T11:34:52;14.50;80.30
13458;DHT22;6801;53.018;11.560;2022-10-31T11:37:22;14.50;80.50
13458;DHT22;6801;53.018;11.560;2022-10-31T11:39:53;14.60;80.60
13458;DHT22;6801;53.018;11.560;2022-10-31T11:42:24;14.50;80.60
13458;DHT22;6801;53.018;11.560;2022-10-31T11:44:53;14.60;80.70
13458;DHT22;6801;53.018;11.560;2022-10-31T11:47:25;14.60;80.70
13458;DHT22;6801;53.018;11.560;2022-10-31T11:49:53;14.60;80.70
13458;DHT22;6801;53.018;11.560;2022-10-31T11:52:23;14.60;80.70
13458;DHT22;6801;53.018;11.560;2022-10-31T11:54:57;14.70;80.70
13458;DHT22;6801;53.018;11.560;2022-10-31T11:57:27;14.70;80.80
13458;DHT22;6801;53.018;11.560;2022-10-31T11:59:55;14.70;80.80
13458;DHT22;6801;53.018;11.560;2022-10-31T12:02:24;14.70;80.70
13458;DHT22;6801;53.018;11.560;2022-10-31T12:04:58;14.70;80.60
13458;DHT22;6801;53.018;11.560;2022-10-31T12:07:27;14.80;80.70
13458;DHT22;6801;53.018;11.560;2022-10-31T12:09:54;14.70;80.70
13458;DHT22;6801;53.018;11.560;2022-10-31T12:15:34;14.80;80.60
13458;DHT22;6801;53.018;11.560;2022-10-31T12:18:24;14.80;80.40
13458;DHT22;6801;53.018;11.560;2022-10-31T12:23:51;14.80;80.10
13458;DHT22;6801;53.018;11.560;2022-10-31T12:26:25;14.80;80.10
13458;DHT22;6801;53.018;11.560;2022-10-31T12:29:07;14.90;80.20
13458;DHT22;6801;53.018;11.560;2022-10-31T12:31:46;14.80;80.40
13458;DHT22;6801;53.018;11.560;2022-10-31T12:34:43;14.80;80.30
13458;DHT22;6801;53.018;11.560;2022-10-31T12:37:21;14.90;80.30
13458;DHT22;6801;53.018;11.560;2022-10-31T12:40:01;14.80;80.30
13458;DHT22;6801;53.018;11.560;2022-10-31T12:42:43;14.80;80.30
13458;DHT22;6801;53.018;11.560;2022-10-31T12:45:36;14.90;80.20
13458;DHT22;6801;53.018;11.560;2022-10-31T12:48:24;14.90;80.20
13458;DHT22;6801;53.018;11.560;2022-10-31T12:50:58;14.90;80.10
13458;DHT22;6801;53.018;11.560;2022-10-31T12:53:38;14.90;80.20
13458;DHT22;6801;53.018;11.560;2022-10-31T12:56:17;14.90;80.20
13458;DHT22;6801;53.018;11.560;2022-10-31T12:58:52;14.90;80.20
13458;DHT22;6801;53.018;11.560;2022-10-31T13:01:23;14.80;80.10
13458;DHT22;6801;53.018;11.560;2022-10-31T13:03:55;14.90;80.20
13458;DHT22;6801;53.018;11.560;2022-10-31T13:06:36;14.90;80.20
13458;DHT22;6801;53.018;11.560;2022-10-31T13:09:07;14.90;80.10
13458;DHT22;6801;53.018;11.560;2022-10-31T13:11:37;14.90;80.10
13458;DHT22;6801;53.018;11.560;2022-10-31T13:14:09;14.90;80.20
13458;DHT22;6801;53.018;11.560;2022-10-31T13:16:41;14.90;80.40
13458;DHT22;6801;53.018;11.560;2022-10-31T13:19:16;14.90;80.40
13458;DHT22;6801;53.018;11.560;2022-10-31T13:21:51;14.90;80.40
13458;DHT22;6801;53.018;11.560;2022-10-31T13:24:23;14.90;80.40
13458;DHT22;6801;53.018;11.560;2022-10-31T13:26:56;14.90;80.40
13458;DHT22;6801;53.018;11.560;2022-10-31T13:29:27;14.90;80.40
13458;DHT22;6801;53.018;11.560;2022-10-31T13:31:59;14.90;80.40
13458;DHT22;6801;53.018;11.560;2022-10-31T13:34:35;14.90;80.50
13458;DHT22;6801;53.018;11.560;2022-10-31T13:37:10;14.90;80.50
13458;DHT22;6801;53.018;11.560;2022-10-31T13:39:52;14.90;80.40
13458;DHT22;6801;53.018;11.560;2022-10-31T13:42:28;14.90;80.30
13458;DHT22;6801;53.018;11.560;2022-10-31T13:45:11;14.90;80.20
13458;DHT22;6801;53.018;11.560;2022-10-31T13:47:38;14.90;80.30
13458;DHT22;6801;53.018;11.560;2022-10-31T13:50:20;14.90;80.30
13458;DHT22;6801;53.018;11.560;2022-10-31T13:52:48;14.90;80.40
13458;DHT22;6801;53.018;11.560;2022-10-31T13:55:38;14.90;80.30
13458;DHT22;6801;53.018;11.560;2022-10-31T13:58:20;14.90;80.20
13458;DHT22;6801;53.018;11.560;2022-10-31T14:01:03;14.90;80.10
13458;DHT22;6801;53.018;11.560;2022-10-31T14:03:33;14.90;80.00
13458;DHT22;6801;53.018;11.560;2022-10-31T14:06:04;14.90;80.10
13458;DHT22;6801;53.018;11.560;2022-10-31T14:08:34;14.90;80.00
13458;DHT22;6801;53.018;11.560;2022-10-31T14:11:02;14.90;80.10
13458;DHT22;6801;53.018;11.560;2022-10-31T14:13:32;14.90;80.10
13458;DHT22;6801;53.018;11.560;2022-10-31T14:16:04;14.90;80.10
13458;DHT22;6801;53.018;11.560;2022-10-31T14:18:34;14.90;80.00
13458;DHT22;6801;53.018;11.560;2022-10-31T14:21:15;14.90;80.00
13458;DHT22;6801;53.018;11.560;2022-10-31T14:23:43;14.90;79.90
13458;DHT22;6801;53.018;11.560;2022-10-31T14:26:20;14.90;79.80
13458;DHT22;6801;53.018;11.560;2022-10-31T14:28:58;14.90;79.80
13458;DHT22;6801;53.018;11.560;2022-10-31T14:31:34;14.90;79.90
13458;DHT22;6801;53.018;11.560;2022-10-31T14:34:17;14.90;80.00
13458;DHT22;6801;53.018;11.560;2022-10-31T14:36:55;14.80;80.10
13458;DHT22;6801;53.018;11.560;2022-10-31T14:39:29;14.80;80.10
13458;DHT22;6801;53.018;11.560;2022-10-31T14:42:10;14.80;80.20
13458;DHT22;6801;53.018;11.560;2022-10-31T14:45:15;14.80;80.10
13458;DHT22;6801;53.018;11.560;2022-10-31T14:47:54;14.80;80.20
13458;DHT22;6801;53.018;11.560;2022-10-31T14:50:33;14.80;80.30
13458;DHT22;6801;53.018;11.560;2022-10-31T14:53:06;14.80;80.40
13458;DHT22;6801;53.018;11.560;2022-10-31T14:55:47;14.80;80.40
13458;DHT22;6801;53.018;11.560;2022-10-31T14:58:18;14.80;80.40
13458;DHT22;6801;53.018;11.560;2022-10-31T15:00:47;14.80;80.40
13458;DHT22;6801;53.018;11.560;2022-10-31T15:03:16;14.80;80.40
13458;DHT22;6801;53.018;11.560;2022-10-31T15:05:49;14.80;80.50
13458;DHT22;6801;53.018;11.560;2022-10-31T15:08:33;14.80;80.50
13458;DHT22;6801;53.018;11.560;2022-10-31T15:11:06;14.80;80.60
13458;DHT22;6801;53.018;11.560;2022-10-31T15:13:42;14.70;80.60
13458;DHT22;6801;53.018;11.560;2022-10-31T15:16:10;14.80;80.60
13458;DHT22;6801;53.018;11.560;2022-10-31T15:18:46;14.80;80.70
13458;DHT22;6801;53.018;11.560;2022-10-31T15:21:15;14.70;80.80
13458;DHT22;6801;53.018;11.560;2022-10-31T15:23:44;14.80;80.80
13458;DHT22;6801;53.018;11.560;2022-10-31T15:26:16;14.80;80.80
13458;DHT22;6801;53.018;11.560;2022-10-31T15:28:44;14.80;80.80
13458;DHT22;6801;53.018;11.560;2022-10-31T15:31:16;14.80;80.80
13458;DHT22;6801;53.018;11.560;2022-10-31T15:33:46;14.70;80.80
13458;DHT22;6801;53.018;11.560;2022-10-31T15:36:19;14.70;80.80
13458;DHT22;6801;53.018;11.560;2022-10-31T15:38:48;14.80;80.70
13458;DHT22;6801;53.018;11.560;2022-10-31T15:41:29;14.80;80.70
13458;DHT22;6801;53.018;11.560;2022-10-31T15:44:02;14.80;80.60
13458;DHT22;6801;53.018;11.560;2022-10-31T15:46:30;14.70;80.70
13458;DHT22;6801;53.018;11.560;2022-10-31T15:48:57;14.70;80.80
13458;DHT22;6801;53.018;11.560;2022-10-31T15:51:30;14.70;80.70
13458;DHT22;6801;53.018;11.560;2022-10-31T15:54:00;14.70;80.70
13458;DHT22;6801;53.018;11.560;2022-10-31T15:56:29;14.70;80.70
13458;DHT22;6801;53.018;11.560;2022-10-31T15:58:58;14.60;80.80
13458;DHT22;6801;53.018;11.560;2022-10-31T16:01:27;14.60;80.70
13458;DHT22;6801;53.018;11.560;2022-10-31T16:04:04;14.60;80.80
13458;DHT22;6801;53.018;11.560;2022-10-31T16:06:33;14.60;80.80
13458;DHT22;6801;53.018;11.560;2022-10-31T16:09:02;14.60;80.70
13458;DHT22;6801;53.018;11.560;2022-10-31T16:11:35;14.60;80.80
13458;DHT22;6801;53.018;11.560;2022-10-31T16:14:06;14.60;80.80
13458;DHT22;6801;53.018;11.560;2022-10-31T16:16:40;14.60;80.80
13458;DHT22;6801;53.018;11.560;2022-10-31T16:19:16;14.60;80.80
13458;DHT22;6801;53.018;11.560;2022-10-31T16:21:45;14.50;80.80
13458;DHT22;6801;53.018;11.560;2022-10-31T16:24:17;14.50;80.80